createdAt,value
2023-05-12T00:01:48.754Z,45.24
2023-05-12T00:04:33.857Z,44.96
2023-05-12T00:07:18.979Z,45.31
2023-05-12T00:10:04.028Z,45.22
2023-05-12T00:12:50.035Z,45.32
2023-05-12T00:15:37.073Z,45.16
2023-05-12T00:18:23.037Z,45.13
2023-05-12T00:21:08.735Z,45.67
2023-05-12T00:23:53.568Z,45.67
2023-05-12T00:26:38.461Z,45.29
2023-05-12T00:29:23.370Z,45.35
2023-05-12T00:32:08.349Z,45.39
2023-05-12T00:34:57.395Z,45.48
2023-05-12T00:37:42.747Z,45.32
2023-05-12T00:40:27.974Z,45.42
2023-05-12T00:43:12.839Z,45.44
2023-05-12T00:45:57.753Z,45.52
2023-05-12T00:48:44.207Z,45.72
2023-05-12T00:51:29.526Z,45.24
2023-05-12T00:54:14.726Z,46.00
2023-05-12T00:56:59.907Z,45.47
2023-05-12T00:59:45.123Z,45.55
2023-05-12T01:02:31.003Z,46.03
2023-05-12T01:05:16.590Z,45.48
2023-05-12T01:08:03.169Z,45.46
2023-05-12T01:10:48.127Z,45.62
2023-05-12T01:13:33.073Z,45.64
2023-05-12T01:16:22.974Z,45.63
2023-05-12T01:19:14.956Z,45.78
2023-05-12T01:22:00.685Z,45.61
2023-05-12T01:24:59.076Z,45.82
2023-05-12T01:27:45.896Z,45.37
2023-05-12T01:30:32.470Z,45.99
2023-05-12T01:33:17.662Z,45.57
2023-05-12T01:36:02.764Z,45.83
2023-05-12T01:38:48.068Z,45.80
2023-05-12T01:41:33.027Z,45.72
2023-05-12T01:44:17.834Z,45.84
2023-05-12T01:47:02.857Z,45.60
2023-05-12T01:49:47.732Z,45.39
2023-05-12T01:52:32.942Z,45.59
2023-05-12T01:55:18.032Z,45.54
2023-05-12T01:58:03.158Z,45.81
2023-05-12T02:00:48.312Z,45.95
2023-05-12T02:03:33.195Z,45.50
2023-05-12T02:06:18.578Z,45.98
2023-05-12T02:09:03.604Z,46.07
2023-05-12T02:11:49.410Z,45.92
2023-05-12T02:14:34.591Z,45.87
2023-05-12T02:17:19.762Z,46.03
2023-05-12T02:20:05.391Z,45.90
2023-05-12T02:22:50.412Z,45.70
2023-05-12T02:25:35.792Z,45.88
2023-05-12T02:28:20.740Z,45.62
2023-05-12T02:31:05.584Z,45.93
2023-05-12T02:33:51.568Z,45.59
2023-05-12T02:36:36.359Z,46.19
2023-05-12T02:39:21.405Z,46.32
2023-05-12T02:42:07.134Z,45.60
2023-05-12T02:44:52.344Z,45.53
2023-05-12T02:47:37.539Z,45.79
2023-05-12T02:50:22.916Z,46.08
2023-05-12T02:53:07.835Z,45.76
2023-05-12T02:55:53.181Z,45.56
2023-05-12T02:58:38.070Z,45.91
2023-05-12T03:01:22.854Z,46.13
2023-05-12T03:04:07.750Z,46.04
2023-05-12T03:06:52.465Z,45.74
2023-05-12T03:09:37.391Z,45.72
2023-05-12T03:12:22.072Z,45.84
2023-05-12T03:15:07.827Z,46.01
2023-05-12T03:17:52.822Z,45.76
2023-05-12T03:20:37.686Z,45.96
2023-05-12T03:23:22.694Z,46.19
2023-05-12T03:26:07.613Z,46.27
2023-05-12T03:28:52.786Z,46.11
2023-05-12T03:31:38.354Z,46.03
2023-05-12T03:34:23.355Z,46.10
2023-05-12T03:37:08.512Z,46.01
2023-05-12T03:39:56.058Z,45.99
2023-05-12T03:42:40.983Z,46.05
2023-05-12T03:45:25.963Z,46.03
2023-05-12T03:48:10.888Z,46.22
2023-05-12T03:50:56.011Z,46.32
2023-05-12T03:53:45.136Z,46.25
2023-05-12T03:56:30.230Z,45.98
2023-05-12T03:59:16.142Z,46.22
2023-05-12T04:02:01.711Z,46.40
2023-05-12T04:04:47.253Z,46.37
2023-05-12T04:07:32.306Z,46.37
2023-05-12T04:10:17.665Z,46.32
2023-05-12T04:13:02.644Z,45.97
2023-05-12T04:15:49.196Z,46.03
2023-05-12T04:18:35.775Z,46.06
2023-05-12T04:21:20.988Z,45.79
2023-05-12T04:24:06.319Z,46.09
2023-05-12T04:26:51.373Z,45.28
2023-05-12T04:29:36.332Z,45.12
2023-05-12T04:32:21.765Z,45.44
2023-05-12T04:35:07.209Z,46.03
2023-05-12T04:37:52.695Z,46.00
2023-05-12T04:42:01.896Z,46.30
2023-05-12T04:44:46.949Z,46.22
2023-05-12T04:47:32.089Z,46.07
2023-05-12T04:50:17.458Z,46.29
2023-05-12T04:53:02.718Z,46.15
2023-05-12T04:55:47.518Z,46.25
2023-05-12T04:58:32.559Z,46.89
2023-05-12T05:01:18.104Z,46.24
2023-05-12T05:04:03.229Z,46.32
2023-05-12T05:06:48.216Z,46.55
2023-05-12T05:09:34.513Z,46.51
2023-05-12T05:12:21.237Z,46.24
2023-05-12T05:15:07.540Z,46.41
2023-05-12T05:17:52.600Z,46.13
2023-05-12T05:20:40.834Z,46.02
2023-05-12T05:23:28.770Z,46.15
2023-05-12T05:26:14.052Z,46.20
2023-05-12T05:28:59.256Z,46.11
2023-05-12T05:31:44.422Z,46.14
2023-05-12T05:34:29.613Z,45.97
2023-05-12T05:37:14.519Z,46.38
2023-05-12T05:39:59.399Z,46.18
2023-05-12T05:42:44.598Z,45.97
2023-05-12T05:45:29.911Z,46.15
2023-05-12T05:48:15.846Z,46.16
2023-05-12T05:51:00.948Z,46.00
2023-05-12T05:53:45.891Z,45.94
2023-05-12T05:56:31.681Z,46.24
2023-05-12T05:59:16.597Z,46.05
2023-05-12T06:02:01.600Z,46.02
2023-05-12T06:04:47.130Z,46.06
2023-05-12T06:07:31.972Z,46.08
2023-05-12T06:10:16.804Z,45.60
2023-05-12T06:13:02.150Z,45.77
2023-05-12T06:15:47.051Z,45.44
2023-05-12T06:18:33.914Z,45.69
2023-05-12T06:21:19.198Z,45.61
2023-05-12T06:24:04.267Z,45.46
2023-05-12T06:26:49.491Z,45.62
2023-05-12T06:29:34.759Z,45.31
2023-05-12T06:32:19.598Z,45.42
2023-05-12T06:35:05.276Z,45.52
2023-05-12T06:37:50.928Z,45.26
2023-05-12T06:40:36.029Z,45.54
2023-05-12T06:43:20.822Z,45.69
2023-05-12T06:46:06.928Z,45.40
2023-05-12T06:48:52.425Z,45.77
2023-05-12T06:51:37.612Z,45.58
2023-05-12T06:54:22.645Z,45.54
2023-05-12T06:57:07.711Z,45.53
2023-05-12T06:59:52.625Z,45.42
2023-05-12T07:02:37.689Z,45.51
2023-05-12T07:05:23.311Z,45.71
2023-05-12T07:08:08.778Z,45.65
2023-05-12T07:10:53.660Z,45.69
2023-05-12T07:13:39.097Z,45.09
2023-05-12T07:16:24.346Z,45.87
2023-05-12T07:19:09.633Z,45.92
2023-05-12T07:21:54.938Z,45.83
2023-05-12T07:24:40.179Z,46.22
2023-05-12T07:27:25.391Z,45.90
2023-05-12T07:30:11.221Z,45.74
2023-05-12T07:32:56.158Z,46.05
2023-05-12T07:35:40.978Z,46.18
2023-05-12T07:38:26.084Z,46.03
2023-05-12T07:41:11.447Z,45.49
2023-05-12T07:43:56.527Z,45.42
2023-05-12T07:46:41.555Z,45.28
2023-05-12T07:49:26.704Z,45.35
2023-05-12T07:52:11.947Z,44.70
2023-05-12T07:54:57.670Z,44.87
2023-05-12T07:57:42.943Z,44.24
2023-05-12T08:00:28.587Z,44.82
2023-05-12T08:03:13.628Z,43.58
2023-05-12T08:05:58.839Z,42.58
2023-05-12T08:08:43.999Z,42.08
2023-05-12T08:11:29.172Z,42.35
2023-05-12T08:14:14.100Z,42.19
2023-05-12T08:16:59.019Z,41.87
2023-05-12T08:19:43.883Z,41.98
2023-05-12T08:22:28.815Z,41.83
2023-05-12T08:25:13.795Z,42.00
2023-05-12T08:27:59.796Z,41.83
2023-05-12T08:30:45.494Z,42.31
2023-05-12T08:33:31.050Z,42.47
2023-05-12T08:36:16.219Z,42.31
2023-05-12T08:39:02.693Z,42.14
2023-05-12T08:41:56.840Z,42.17
2023-05-12T08:44:41.942Z,42.01
2023-05-12T08:47:28.597Z,41.82
2023-05-12T08:50:17.034Z,41.90
2023-05-12T08:53:04.319Z,42.08
2023-05-12T08:57:08.317Z,41.60
2023-05-12T08:58:55.234Z,41.67
2023-05-12T09:01:42.983Z,41.73
2023-05-12T09:04:28.356Z,42.00
2023-05-12T09:07:14.057Z,41.36
2023-05-12T09:10:01.078Z,42.00
2023-05-12T09:12:47.817Z,41.54
2023-05-12T09:15:39.002Z,41.75
2023-05-12T09:18:24.180Z,41.35
2023-05-12T09:21:09.147Z,42.19
2023-05-12T09:23:58.968Z,41.64
2023-05-12T09:26:47.430Z,41.66
2023-05-12T09:29:37.517Z,41.47
2023-05-12T09:32:32.845Z,41.69
2023-05-12T09:35:17.803Z,41.14
2023-05-12T09:38:08.703Z,41.54
2023-05-12T09:40:53.964Z,41.27
2023-05-12T09:43:45.783Z,41.71
2023-05-12T09:46:31.072Z,41.00
2023-05-12T09:49:22.373Z,41.85
2023-05-12T09:52:07.161Z,41.34
2023-05-12T09:54:52.698Z,41.39
2023-05-12T09:57:41.200Z,41.98
2023-05-12T10:00:38.483Z,41.57
2023-05-12T10:03:33.399Z,42.29
2023-05-12T10:06:26.531Z,40.92
2023-05-12T10:09:19.542Z,40.89
2023-05-12T10:12:06.272Z,40.91
2023-05-12T10:14:52.080Z,41.24
2023-05-12T10:17:37.522Z,41.36
2023-05-12T10:20:23.208Z,41.46
2023-05-12T10:23:12.184Z,41.39
2023-05-12T10:26:01.904Z,41.33
2023-05-12T10:28:47.713Z,41.28
2023-05-12T10:31:32.993Z,41.22
2023-05-12T10:34:19.301Z,42.15
2023-05-12T10:37:09.008Z,41.09
2023-05-12T10:39:54.352Z,41.63
2023-05-12T10:42:42.535Z,41.68
2023-05-12T10:45:28.235Z,42.02
2023-05-12T10:48:15.605Z,41.49
2023-05-12T10:51:10.654Z,42.08
2023-05-12T10:54:06.553Z,41.81
2023-05-12T10:56:52.741Z,41.97
2023-05-12T10:59:48.873Z,41.80
2023-05-12T11:02:36.762Z,42.07
2023-05-12T11:05:34.553Z,41.84
2023-05-12T11:08:19.979Z,42.28
2023-05-12T11:11:06.248Z,42.15
2023-05-12T11:13:51.816Z,42.44
2023-05-12T11:16:42.936Z,41.94
2023-05-12T11:19:29.073Z,42.74
2023-05-12T11:22:17.444Z,41.91
2023-05-12T11:25:11.731Z,43.09
2023-05-12T11:27:57.000Z,42.45
2023-05-12T11:30:54.948Z,42.61
2023-05-12T11:33:40.577Z,42.19
2023-05-12T11:36:25.374Z,42.68
2023-05-12T11:39:22.055Z,42.91
2023-05-12T11:42:13.458Z,43.41
2023-05-12T11:44:58.929Z,43.60
2023-05-12T11:47:43.836Z,43.12
2023-05-12T11:50:28.810Z,42.77
2023-05-12T11:53:17.120Z,43.45
2023-05-12T11:56:02.245Z,43.01
2023-05-12T11:58:56.277Z,43.70
2023-05-12T12:01:46.612Z,42.99
2023-05-12T12:04:36.246Z,43.23
2023-05-12T12:07:32.047Z,43.26
2023-05-12T12:10:18.598Z,43.42
2023-05-12T12:13:03.903Z,43.27
2023-05-12T12:15:50.643Z,43.44
2023-05-12T12:18:35.925Z,43.11
2023-05-12T12:21:22.364Z,43.64
2023-05-12T12:24:07.556Z,43.33
2023-05-12T12:26:52.814Z,43.35
2023-05-12T12:29:37.834Z,43.14
2023-05-12T12:32:22.817Z,43.37
2023-05-12T12:35:08.083Z,43.42
2023-05-12T12:37:52.986Z,43.74
2023-05-12T12:40:38.258Z,43.76
2023-05-12T12:43:23.042Z,43.50
2023-05-12T12:46:08.095Z,43.76
2023-05-12T12:48:53.464Z,43.45
2023-05-12T12:51:45.588Z,43.85
2023-05-12T12:54:31.294Z,43.40
2023-05-12T12:57:16.483Z,43.81
2023-05-12T13:00:02.144Z,43.20
2023-05-12T13:02:47.512Z,44.28
2023-05-12T13:05:32.779Z,43.47
2023-05-12T13:08:17.754Z,44.03
2023-05-12T13:11:03.046Z,44.02
2023-05-12T13:13:47.883Z,44.13
2023-05-12T13:16:32.874Z,43.66
2023-05-12T13:19:18.084Z,44.20
2023-05-12T13:22:03.299Z,44.16
2023-05-12T13:24:48.992Z,44.08
2023-05-12T13:27:35.375Z,43.95
2023-05-12T13:30:20.592Z,43.98
2023-05-12T13:33:06.361Z,44.07
2023-05-12T13:35:51.629Z,44.11
2023-05-12T13:38:36.518Z,44.13
2023-05-12T13:41:21.482Z,44.02
2023-05-12T13:44:06.314Z,44.07
2023-05-12T13:46:51.200Z,44.12
2023-05-12T13:49:36.898Z,44.62
2023-05-12T13:52:21.847Z,43.92
2023-05-12T13:55:07.224Z,44.41
2023-05-12T13:57:52.459Z,44.47
2023-05-12T14:00:37.764Z,44.62
2023-05-12T14:03:23.132Z,44.42
2023-05-12T14:06:08.439Z,44.72
2023-05-12T14:08:53.591Z,44.57
2023-05-12T14:11:38.932Z,44.44
2023-05-12T14:14:23.917Z,44.39
2023-05-12T14:17:08.756Z,44.73
2023-05-12T14:19:53.855Z,44.36
2023-05-12T14:22:38.938Z,44.08
2023-05-12T14:25:25.169Z,44.14
2023-05-12T14:28:10.566Z,44.26
2023-05-12T14:30:55.846Z,44.09
2023-05-12T14:33:41.418Z,44.07
2023-05-12T14:36:26.513Z,44.39
2023-05-12T14:39:11.563Z,44.28
2023-05-12T14:41:56.716Z,44.32
2023-05-12T14:44:41.666Z,44.48
2023-05-12T14:47:26.792Z,44.63
2023-05-12T14:50:12.003Z,44.85
2023-05-12T14:52:57.439Z,44.68
2023-05-12T14:55:42.573Z,45.33
2023-05-12T14:58:27.942Z,44.86
2023-05-12T15:01:13.077Z,44.63
2023-05-12T15:03:58.040Z,45.07
2023-05-12T15:06:42.910Z,44.98
2023-05-12T15:09:28.092Z,44.99
2023-05-12T15:12:13.253Z,44.88
2023-05-12T15:15:01.113Z,44.96
2023-05-12T15:17:46.290Z,45.14
2023-05-12T15:20:31.257Z,45.03
2023-05-12T15:23:16.311Z,45.49
2023-05-12T15:26:15.475Z,45.21
2023-05-12T15:29:06.263Z,45.17
2023-05-12T15:31:51.661Z,45.21
2023-05-12T15:34:37.195Z,45.26
2023-05-12T15:37:22.250Z,45.16
2023-05-12T15:40:08.067Z,45.18
2023-05-12T15:42:52.929Z,45.12
2023-05-12T15:45:37.911Z,44.68
2023-05-12T15:48:23.238Z,44.98
2023-05-12T15:51:08.517Z,45.17
2023-05-12T15:53:53.986Z,45.01
2023-05-12T15:56:39.155Z,44.84
2023-05-12T15:59:24.290Z,44.83
2023-05-12T16:02:09.438Z,44.85
2023-05-12T16:04:54.402Z,44.83
2023-05-12T16:07:39.778Z,45.06
2023-05-12T16:10:24.573Z,45.05
2023-05-12T16:13:09.563Z,44.97
2023-05-12T16:15:54.602Z,44.92
2023-05-12T16:18:40.138Z,44.91
2023-05-12T16:21:25.241Z,45.38
2023-05-12T16:24:11.088Z,45.19
2023-05-12T16:26:56.348Z,44.59
2023-05-12T16:29:45.386Z,45.31
2023-05-12T16:32:30.682Z,44.92
2023-05-12T16:35:15.909Z,44.89
2023-05-12T16:38:02.051Z,44.97
2023-05-12T16:40:46.981Z,44.71
2023-05-12T16:43:32.216Z,44.70
2023-05-12T16:46:17.538Z,45.08
2023-05-12T16:49:03.032Z,45.25
2023-05-12T16:51:48.427Z,45.00
2023-05-12T16:54:33.654Z,44.87
2023-05-12T16:57:19.080Z,45.13
2023-05-12T17:00:05.623Z,44.56
2023-05-12T17:02:50.878Z,44.93
2023-05-12T17:05:36.960Z,44.89
2023-05-12T17:08:22.411Z,45.15
2023-05-12T17:11:08.131Z,45.25
2023-05-12T17:13:53.729Z,45.36
2023-05-12T17:16:38.721Z,45.32
2023-05-12T17:19:24.130Z,45.26
2023-05-12T17:22:09.589Z,45.09
2023-05-12T17:24:54.805Z,45.10
2023-05-12T17:27:40.250Z,45.34
2023-05-12T17:30:25.114Z,45.33
2023-05-12T17:33:10.621Z,45.26
2023-05-12T17:36:10.842Z,45.49
2023-05-12T17:38:57.058Z,45.51
2023-05-12T17:41:43.914Z,45.46
2023-05-12T17:44:29.941Z,45.40
2023-05-12T17:47:15.304Z,45.67
2023-05-12T17:50:00.380Z,45.29
2023-05-12T17:52:45.182Z,45.89
2023-05-12T17:55:30.034Z,45.73
2023-05-12T17:58:14.915Z,45.75
2023-05-12T18:00:59.997Z,45.68
2023-05-12T18:03:44.819Z,45.39
2023-05-12T18:06:30.390Z,45.74
2023-05-12T18:09:17.706Z,45.35
2023-05-12T18:12:02.702Z,45.55
2023-05-12T18:14:47.647Z,45.40
2023-05-12T18:17:33.071Z,45.22
2023-05-12T18:20:18.922Z,45.06
2023-05-12T18:23:03.911Z,45.52
2023-05-12T18:25:48.978Z,45.44
2023-05-12T18:28:33.906Z,45.54
2023-05-12T18:31:20.020Z,45.34
2023-05-12T18:34:05.305Z,45.34
2023-05-12T18:36:50.168Z,45.21
2023-05-12T18:39:35.755Z,45.56
2023-05-12T18:42:21.042Z,45.28
2023-05-12T18:45:06.599Z,45.42
2023-05-12T18:47:51.780Z,45.22
2023-05-12T18:50:36.812Z,45.27
2023-05-12T18:53:22.305Z,45.44
2023-05-12T18:56:07.133Z,45.54
2023-05-12T18:58:52.151Z,45.46
2023-05-12T19:01:37.216Z,45.53
2023-05-12T19:04:22.552Z,45.23
2023-05-12T19:07:09.801Z,45.08
2023-05-12T19:09:55.805Z,45.10
2023-05-12T19:12:40.884Z,45.00
2023-05-12T19:15:26.503Z,45.53
2023-05-12T19:18:11.505Z,45.21
2023-05-12T19:20:56.711Z,45.54
2023-05-12T19:23:41.798Z,45.67
2023-05-12T19:26:27.052Z,45.82
2023-05-12T19:29:12.170Z,46.21
2023-05-12T19:31:57.051Z,45.65
2023-05-12T19:34:42.194Z,45.58
2023-05-12T19:37:27.580Z,45.74
2023-05-12T19:40:13.085Z,45.50
2023-05-12T19:42:58.218Z,45.98
2023-05-12T19:45:43.185Z,46.26
2023-05-12T19:48:28.045Z,46.40
2023-05-12T19:51:12.961Z,46.50
2023-05-12T19:53:58.161Z,46.45
2023-05-12T19:56:43.265Z,46.47
2023-05-12T19:59:28.022Z,46.97
2023-05-12T20:02:14.215Z,46.69
2023-05-12T20:05:00.670Z,46.50
2023-05-12T20:07:45.943Z,47.08
2023-05-12T20:10:30.905Z,46.85
2023-05-12T20:13:16.064Z,47.26
2023-05-12T20:16:01.001Z,46.97
2023-05-12T20:18:46.430Z,46.68
2023-05-12T20:21:31.513Z,46.69
2023-05-12T20:24:16.406Z,46.75
2023-05-12T20:27:01.395Z,46.73
2023-05-12T20:29:46.910Z,46.65
2023-05-12T20:32:32.179Z,46.58
2023-05-12T20:35:17.293Z,46.61
2023-05-12T20:38:02.879Z,46.74
2023-05-12T20:40:48.037Z,46.39
2023-05-12T20:43:33.055Z,46.76
2023-05-12T20:46:18.317Z,46.42
2023-05-12T20:49:03.673Z,46.57
2023-05-12T20:51:48.786Z,46.77
2023-05-12T20:54:33.676Z,46.93
2023-05-12T20:57:18.709Z,47.14
2023-05-12T21:00:04.158Z,46.81
2023-05-12T21:02:52.152Z,46.88
2023-05-12T21:05:39.079Z,46.79
2023-05-12T21:08:24.249Z,46.70
2023-05-12T21:11:14.794Z,46.94
2023-05-12T21:14:00.217Z,46.86
2023-05-12T21:16:45.730Z,46.77
2023-05-12T21:19:30.855Z,46.95
2023-05-12T21:22:16.094Z,46.82
2023-05-12T21:25:01.264Z,46.51
2023-05-12T21:27:47.413Z,46.74
2023-05-12T21:30:32.546Z,46.58
2023-05-12T21:33:17.767Z,46.73
2023-05-12T21:36:03.429Z,46.97
2023-05-12T21:38:48.409Z,46.71
2023-05-12T21:41:33.346Z,46.77
2023-05-12T21:44:18.317Z,46.63
2023-05-12T21:47:04.360Z,46.92
2023-05-12T21:49:56.849Z,46.80
2023-05-12T21:52:41.901Z,47.23
2023-05-12T21:55:26.781Z,46.81
2023-05-12T21:58:11.692Z,46.81
2023-05-12T22:00:56.547Z,47.07
2023-05-12T22:03:41.751Z,47.03
2023-05-12T22:06:26.958Z,46.60
2023-05-12T22:09:12.188Z,46.70
2023-05-12T22:11:57.155Z,46.80
2023-05-12T22:14:42.946Z,46.71
2023-05-12T22:17:28.335Z,46.70
2023-05-12T22:20:13.546Z,46.56
2023-05-12T22:22:59.328Z,46.28
2023-05-12T22:25:44.118Z,46.62
2023-05-12T22:28:29.047Z,46.49
2023-05-12T22:31:13.898Z,46.61
2023-05-12T22:33:58.851Z,46.51
2023-05-12T22:36:43.838Z,46.75
2023-05-12T22:39:28.769Z,47.11
2023-05-12T22:42:13.837Z,47.21
2023-05-12T22:45:00.765Z,46.69
2023-05-12T22:47:45.989Z,46.98
2023-05-12T22:50:30.812Z,46.98
2023-05-12T22:53:15.864Z,47.15
2023-05-12T22:56:01.299Z,47.36
2023-05-12T22:58:46.417Z,47.47
2023-05-12T23:01:31.605Z,47.54
2023-05-12T23:04:16.975Z,47.29
2023-05-12T23:07:02.099Z,47.64
2023-05-12T23:09:47.148Z,47.64
2023-05-12T23:12:32.060Z,47.18
2023-05-12T23:15:17.429Z,47.61
2023-05-12T23:18:02.278Z,47.70
2023-05-12T23:20:47.246Z,47.64
2023-05-12T23:23:33.233Z,47.57
2023-05-12T23:26:18.235Z,47.82
2023-05-12T23:29:04.083Z,48.27
2023-05-12T23:31:49.176Z,47.92
2023-05-12T23:34:34.124Z,47.79
2023-05-12T23:37:19.983Z,47.67
2023-05-12T23:40:05.648Z,47.90
2023-05-12T23:42:50.696Z,47.80
2023-05-12T23:45:35.864Z,47.51
2023-05-12T23:48:21.244Z,47.44
2023-05-12T23:51:06.202Z,47.65
2023-05-12T23:53:51.637Z,47.64
2023-05-12T23:56:36.552Z,47.78
2023-05-12T23:59:21.821Z,47.69
